createdAt,value
2019-03-26T18:08:08.664Z,103069.38
2019-03-26T18:10:41.054Z,103068.52
2019-03-26T18:13:13.451Z,103081.20
2019-03-26T18:15:46.101Z,103085.46
2019-03-26T18:18:19.732Z,103070.52
2019-03-26T18:20:52.390Z,103077.59
2019-03-26T18:23:24.894Z,103092.46
2019-03-26T18:25:57.279Z,103092.98
2019-03-26T18:28:29.738Z,103086.87
2019-03-26T18:31:02.210Z,103080.89
2019-03-26T18:33:34.744Z,103093.46
2019-03-26T18:36:07.067Z,103095.59
2019-03-26T18:38:39.429Z,103095.38
2019-03-26T18:41:12.008Z,103098.14
2019-03-26T18:43:44.493Z,103101.14
2019-03-26T18:46:17.100Z,103102.27
2019-03-26T18:48:51.463Z,103099.36
2019-03-26T18:51:24.186Z,103109.15
2019-03-26T18:53:56.743Z,103109.11
2019-03-26T18:56:29.204Z,103118.51
2019-03-26T18:59:01.874Z,103127.09
2019-03-26T19:01:34.372Z,103126.23
2019-03-26T19:04:07.043Z,103125.27
2019-03-26T19:06:39.496Z,103119.20
2019-03-26T19:09:11.880Z,103119.33
2019-03-26T19:11:44.521Z,103118.38
2019-03-26T19:14:16.829Z,103121.89
2019-03-26T19:16:49.086Z,103115.66
2019-03-26T19:19:22.902Z,103114.30
2019-03-26T19:21:55.280Z,103115.14
2019-03-26T19:24:27.623Z,103112.82
2019-03-26T19:27:00.664Z,103117.63
2019-03-26T19:29:33.297Z,103115.30
2019-03-26T19:32:05.739Z,103118.33
2019-03-26T19:34:38.396Z,103123.58
2019-03-26T19:37:11.425Z,103118.42
2019-03-26T19:39:43.808Z,103121.77
2019-03-26T19:42:15.916Z,103123.92
2019-03-26T19:44:48.497Z,103120.46
2019-03-26T19:47:20.871Z,103118.52
2019-03-26T19:49:53.217Z,103122.94
2019-03-26T19:52:25.615Z,103127.73
2019-03-26T19:55:00.770Z,103126.48
2019-03-26T19:57:31.988Z,103128.25
2019-03-26T20:00:04.373Z,103130.33
2019-03-26T20:02:36.908Z,103128.77
2019-03-26T20:05:10.478Z,103133.67
2019-03-26T20:07:42.882Z,103139.91
2019-03-26T20:10:15.527Z,103138.09
2019-03-26T20:12:47.982Z,103140.30
2019-03-26T20:15:20.209Z,103145.88
2019-03-26T20:17:52.249Z,103147.35
2019-03-26T20:20:24.511Z,103138.65
2019-03-26T20:22:56.809Z,103145.75
2019-03-26T20:25:29.106Z,103149.17
2019-03-26T20:28:01.284Z,103151.34
2019-03-26T20:30:33.592Z,103152.91
2019-03-26T20:33:06.120Z,103158.10
2019-03-26T20:35:38.465Z,103155.77
2019-03-26T20:38:11.366Z,103153.62
2019-03-26T20:40:43.543Z,103160.87
2019-03-26T20:43:16.429Z,103164.51
2019-03-26T20:45:49.000Z,103158.83
2019-03-26T20:48:21.602Z,103159.22
2019-03-26T20:50:57.079Z,103160.38
2019-03-26T20:53:28.072Z,103168.41
2019-03-26T20:56:00.423Z,103171.01
2019-03-26T20:58:32.535Z,103173.52
2019-03-26T21:01:04.872Z,103167.53
2019-03-26T21:03:37.225Z,103176.85
2019-03-26T21:06:09.546Z,103169.83
2019-03-26T21:08:42.051Z,103172.30
2019-03-26T21:11:14.574Z,103180.84
2019-03-26T21:13:51.001Z,103172.14
2019-03-26T21:16:21.145Z,103173.18
2019-03-26T21:18:53.416Z,103172.44
2019-03-26T21:21:25.665Z,103171.30
2019-03-26T21:23:59.039Z,103164.97
2019-03-26T21:26:31.322Z,103155.58
2019-03-26T21:29:03.629Z,103158.17
2019-03-26T21:31:35.906Z,103152.20
2019-03-26T21:34:08.129Z,103150.51
2019-03-26T21:36:40.512Z,103155.09
2019-03-26T21:39:12.777Z,103146.03
2019-03-26T21:41:45.289Z,103152.66
2019-03-26T21:44:17.522Z,103143.83
2019-03-26T21:46:49.820Z,103150.72
2019-03-26T21:49:22.181Z,103146.03
2019-03-26T21:51:54.273Z,103149.93
2019-03-26T21:54:27.102Z,103150.09
2019-03-26T21:56:59.534Z,103151.30
2019-03-26T21:59:32.019Z,103149.09
2019-03-26T22:02:04.336Z,103141.72
2019-03-26T22:04:36.603Z,103151.66
2019-03-26T22:07:09.497Z,103157.02
2019-03-26T22:09:41.834Z,103156.89
2019-03-26T22:12:14.238Z,103160.30
2019-03-26T22:14:46.778Z,103162.84
2019-03-26T22:17:19.134Z,103162.80
2019-03-26T22:19:52.062Z,103171.83
2019-03-26T22:22:24.680Z,103179.46
2019-03-26T22:24:57.270Z,103178.30
2019-03-26T22:27:29.848Z,103172.19
2019-03-26T22:30:02.447Z,103166.24
2019-03-26T22:32:35.227Z,103167.22
2019-03-26T22:35:07.918Z,103169.91
2019-03-26T22:37:40.302Z,103171.99
2019-03-26T22:40:13.054Z,103173.81
2019-03-26T22:42:45.217Z,103178.48
2019-03-26T22:45:19.561Z,103174.75
2019-03-26T22:47:51.842Z,103175.56
2019-03-26T22:50:24.317Z,103173.36
2019-03-26T22:52:56.763Z,103176.93
2019-03-26T22:55:29.115Z,103188.63
2019-03-26T22:58:01.421Z,103183.27
2019-03-26T23:00:33.699Z,103185.95
2019-03-26T23:03:07.627Z,103186.87
2019-03-26T23:05:41.011Z,103185.47
2019-03-26T23:08:13.442Z,103186.80
2019-03-26T23:10:45.901Z,103190.31
2019-03-26T23:13:18.261Z,103182.64
2019-03-26T23:15:50.992Z,103179.75
2019-03-26T23:18:23.280Z,103181.84
2019-03-26T23:20:55.949Z,103175.23
2019-03-26T23:23:28.279Z,103179.14
2019-03-26T23:26:00.762Z,103175.34
2019-03-26T23:28:32.988Z,103175.17
2019-03-26T23:31:05.561Z,103175.98
2019-03-26T23:33:37.892Z,103174.33
2019-03-26T23:36:12.100Z,103182.81
2019-03-26T23:38:44.453Z,103171.99
2019-03-26T23:41:16.799Z,103174.59
2019-03-26T23:43:49.151Z,103176.70
2019-03-26T23:46:21.529Z,103182.64
2019-03-26T23:48:53.940Z,103170.72
2019-03-26T23:51:26.163Z,103163.15
2019-03-26T23:53:58.404Z,103164.84
2019-03-26T23:56:30.646Z,103164.55
2019-03-26T23:59:03.179Z,103166.92
